Time;durP1;ratioP1;P1;durP2;ratioP2;P2;SDS_P1;SDS_P2;PMS_P1;PMS_P2;Temp;Humidity;BMP_temperature;BMP_pressure;BME280_temperature;BME280_humidity;BME280_pressure;Samples;Min_cycle;Max_cycle;Signal;HPM_P1;HPM_P2
2021/10/24 00:01:58;;;;;;;5.75;1.65;;;;;;;9.18;56.58;101388.50;5104303;28;20080;-71
2021/10/24 00:04:23;;;;;;;5.65;1.20;;;;;;;8.88;56.52;101345.81;5104358;28;20054;-71
2021/10/24 00:06:49;;;;;;;5.35;1.50;;;;;;;9.12;56.74;101390.19;5103711;28;20060;-71
2021/10/24 00:09:14;;;;;;;7.45;1.50;;;;;;;9.16;56.84;101390.25;5104308;28;20016;-71
2021/10/24 00:11:39;;;;;;;8.35;1.42;;;;;;;9.18;56.87;101388.50;5104287;28;20027;-71
2021/10/24 00:14:07;;;;;;;5.43;0.90;;;;;;;9.15;56.85;101382.44;5104118;28;20020;-71
2021/10/24 00:16:32;;;;;;;6.32;0.90;;;;;;;9.21;56.82;101392.00;5104240;28;20031;-71
2021/10/24 00:18:58;;;;;;;4.40;1.45;;;;;;;9.18;57.10;101388.50;5103906;28;20028;-71
2021/10/24 00:21:23;;;;;;;5.28;1.17;;;;;;;9.20;57.05;101385.94;5103616;28;20054;-70
2021/10/24 00:23:48;;;;;;;3.10;1.17;;;;;;;9.14;57.13;101376.38;5103791;28;20040;-71
2021/10/24 00:26:14;;;;;;;3.45;0.85;;;;;;;9.20;57.15;101391.13;5103898;28;20076;-71
2021/10/24 00:28:39;;;;;;;4.00;1.35;;;;;;;9.22;57.10;101383.41;5119503;28;20225;-71
2021/10/24 00:31:04;;;;;;;3.60;1.15;;;;;;;9.26;57.07;101382.59;5103913;28;20020;-71
2021/10/24 00:33:30;;;;;;;13.25;1.45;;;;;;;9.23;57.05;101379.94;5103664;28;20028;-71
2021/10/24 00:35:55;;;;;;;6.82;1.25;;;;;;;9.21;57.31;101377.34;5103574;28;20028;-71
2021/10/24 00:38:21;;;;;;;5.55;1.10;;;;;;;9.20;57.39;101378.16;5103920;28;20099;-71
2021/10/24 00:40:46;;;;;;;8.88;1.60;;;;;;;9.22;57.37;101380.81;5102655;28;20407;-71
2021/10/24 00:43:11;;;;;;;6.93;1.13;;;;;;;9.23;57.43;101379.94;5102541;28;20020;-71
2021/10/24 00:45:37;;;;;;;4.15;1.40;;;;;;;9.20;57.47;101369.53;5103387;28;20058;-72
2021/10/24 00:48:02;;;;;;;7.82;1.52;;;;;;;9.25;57.51;101376.50;5103660;28;20039;-71
2021/10/24 00:50:28;;;;;;;4.50;1.10;;;;;;;9.24;57.77;101379.09;5103466;28;20384;-71
2021/10/24 00:52:53;;;;;;;6.22;1.38;;;;;;;9.21;57.95;101366.97;5103543;28;20111;-71
2021/10/24 00:55:21;;;;;;;5.50;1.00;;;;;;;9.29;58.05;101380.91;5103955;28;20032;-71
2021/10/24 00:57:47;;;;;;;5.75;1.50;;;;;;;9.25;58.35;101362.72;5103660;28;20024;-71
2021/10/24 01:00:13;;;;;;;4.10;1.98;;;;;;;9.28;58.50;101373.13;5103874;28;20027;-72
2021/10/24 01:02:39;;;;;;;5.80;1.33;;;;;;;9.31;58.62;101378.34;5103388;28;20584;-70
2021/10/24 01:05:07;;;;;;;7.28;1.30;;;;;;;9.28;58.74;101370.53;5119347;28;20087;-72
2021/10/24 01:07:33;;;;;;;7.30;1.63;;;;;;;9.32;58.69;101369.69;5103189;28;20039;-71
2021/10/24 01:09:59;;;;;;;4.30;1.30;;;;;;;9.35;59.08;101367.13;5103541;28;20035;-72
2021/10/24 01:12:25;;;;;;;5.57;1.10;;;;;;;9.33;59.30;101368.84;5103290;28;20023;-71
2021/10/24 01:14:50;;;;;;;4.18;1.10;;;;;;;9.35;59.26;101369.72;5103239;28;20027;-71
2021/10/24 01:17:15;;;;;;;5.65;0.90;;;;;;;9.35;59.44;101369.72;5103148;28;20034;-70
2021/10/24 01:19:41;;;;;;;5.63;1.20;;;;;;;9.38;59.40;101364.59;5105922;28;20432;-71
2021/10/24 01:22:06;;;;;;;7.95;1.30;;;;;;;9.37;59.66;101360.25;5107077;28;20024;-71
2021/10/24 01:24:31;;;;;;;7.63;1.00;;;;;;;9.39;59.78;101361.13;5107358;28;20044;-71
2021/10/24 01:26:59;;;;;;;2.58;1.15;;;;;;;9.41;59.90;101355.97;5107245;28;20032;-71
2021/10/24 01:29:24;;;;;;;5.03;1.30;;;;;;;9.39;60.00;101355.09;5123053;28;20077;-71
2021/10/24 01:31:51;;;;;;;7.05;1.38;;;;;;;9.37;60.05;101349.91;5107450;28;20017;-71
2021/10/24 01:34:16;;;;;;;9.98;1.40;;;;;;;9.36;60.01;101350.72;5107377;28;20020;-70
2021/10/24 01:36:42;;;;;;;5.53;1.33;;;;;;;9.39;60.22;101352.50;5107098;28;20047;-71
2021/10/24 01:39:07;;;;;;;2.25;0.98;;;;;;;9.32;60.32;101346.38;5107281;28;20476;-70
2021/10/24 01:41:33;;;;;;;8.05;1.17;;;;;;;9.39;60.09;101350.75;5106783;28;20038;-72
2021/10/24 01:43:58;;;;;;;4.47;1.00;;;;;;;9.35;60.21;101338.63;5106941;28;20125;-70
2021/10/24 01:46:24;;;;;;;4.85;2.28;;;;;;;9.36;60.44;101348.13;5122514;28;20051;-71
2021/10/24 01:48:50;;;;;;;7.47;0.98;;;;;;;9.35;60.62;101345.53;5106630;28;20039;-71
2021/10/24 01:51:15;;;;;;;9.90;1.33;;;;;;;9.37;60.83;101344.72;5106579;28;20034;-71
2021/10/24 01:53:43;;;;;;;9.32;1.15;;;;;;;9.37;61.09;101334.34;5106783;28;20020;-71
2021/10/24 01:56:09;;;;;;;5.55;1.17;;;;;;;9.36;61.39;101322.22;5106935;28;20027;-71
2021/10/24 01:58:35;;;;;;;7.10;0.93;;;;;;;9.42;61.31;101339.59;5106845;28;20020;-72
2021/10/24 02:01:01;;;;;;;4.30;1.45;;;;;;;9.39;61.85;101334.38;5106772;28;20028;-71
2021/10/24 02:03:26;;;;;;;5.45;1.13;;;;;;;9.45;62.02;101343.91;5106740;28;20020;-72
2021/10/24 02:05:51;;;;;;;7.25;1.35;;;;;;;9.45;62.27;101333.56;5088133;28;20016;-70
2021/10/24 02:08:17;;;;;;;8.07;1.25;;;;;;;9.39;62.34;101327.44;5106807;28;20020;-70
2021/10/24 02:10:43;;;;;;;15.38;2.28;;;;;;;9.37;62.55;101325.69;5106463;28;20051;-71
2021/10/24 02:13:10;;;;;;;7.03;1.40;;;;;;;9.39;62.58;101318.81;5106838;28;20130;-71
2021/10/24 02:15:36;;;;;;;8.77;1.40;;;;;;;9.40;62.79;101328.31;5106557;28;20084;-71
2021/10/24 02:18:02;;;;;;;6.38;1.40;;;;;;;9.36;62.88;101318.78;5106422;28;20115;-70
2021/10/24 02:20:29;;;;;;;9.60;1.70;;;;;;;9.43;62.68;101333.53;5122074;28;20026;-71
2021/10/24 02:22:55;;;;;;;5.25;1.27;;;;;;;9.40;62.98;101325.72;5121976;28;20073;-70
2021/10/24 02:25:22;;;;;;;6.13;1.58;;;;;;;9.34;63.18;101318.75;5106309;28;20039;-71
2021/10/24 02:27:47;;;;;;;7.47;1.75;;;;;;;9.35;63.71;101312.72;5106441;28;20027;-71
2021/10/24 02:30:14;;;;;;;10.93;1.63;;;;;;;9.38;64.07;101320.53;5106191;28;20020;-71
2021/10/24 02:32:41;;;;;;;9.70;1.45;;;;;;;9.39;64.12;101306.69;5106254;28;20055;-71
2021/10/24 02:35:07;;;;;;;7.15;1.30;;;;;;;9.41;64.79;101306.72;5105945;28;20100;-71
2021/10/24 02:37:33;;;;;;;8.32;1.60;;;;;;;9.37;64.86;101298.06;5105809;28;20032;-71
2021/10/24 02:39:59;;;;;;;10.18;2.15;;;;;;;9.41;65.27;101299.81;5105800;28;20028;-71
2021/10/24 02:42:24;;;;;;;8.75;1.73;;;;;;;9.41;65.78;101307.59;5105815;28;20024;-71
2021/10/24 02:44:50;;;;;;;9.70;1.70;;;;;;;9.40;66.65;101305.88;5105949;28;20135;-71
2021/10/24 02:47:17;;;;;;;5.88;2.72;;;;;;;9.43;66.63;101305.03;5105889;28;20031;-72
2021/10/24 02:49:43;;;;;;;19.00;1.98;;;;;;;9.45;67.08;101312.81;5105838;28;20050;-71
2021/10/24 02:52:08;;;;;;;10.20;2.78;;;;;;;9.43;67.50;101305.03;5105724;28;20053;-71
2021/10/24 02:54:34;;;;;;;8.43;2.00;;;;;;;9.48;67.81;101313.72;5106121;28;20031;-71
2021/10/24 02:57:00;;;;;;;8.63;1.77;;;;;;;9.48;68.05;101310.25;5105476;28;20032;-71
2021/10/24 02:59:25;;;;;;;10.38;2.17;;;;;;;9.52;68.19;101312.91;5105731;28;20031;-71
2021/10/24 03:01:51;;;;;;;8.73;1.70;;;;;;;9.55;68.10;101309.47;5105626;28;20055;-71
2021/10/24 03:04:16;;;;;;;11.32;2.30;;;;;;;9.53;68.57;101312.06;5105503;28;20024;-71
2021/10/24 03:06:42;;;;;;;7.55;2.00;;;;;;;9.51;68.84;101308.56;5105141;28;20035;-71
2021/10/24 03:09:07;;;;;;;10.07;2.25;;;;;;;9.52;68.94;101301.69;5105503;28;20046;-71
2021/10/24 03:11:33;;;;;;;12.30;1.65;;;;;;;9.57;69.47;101297.38;5105271;28;20024;-71
2021/10/24 03:13:59;;;;;;;7.47;1.77;;;;;;;9.56;69.45;101295.66;5105562;28;20026;-71
2021/10/24 03:16:24;;;;;;;12.45;2.85;;;;;;;9.57;69.14;101292.19;5105245;28;20022;-72
2021/10/24 03:18:49;;;;;;;6.65;1.70;;;;;;;9.60;69.37;101292.22;5105291;28;20032;-72
2021/10/24 03:21:15;;;;;;;7.72;1.48;;;;;;;9.58;69.57;101283.59;5104838;28;20045;-72
2021/10/24 03:23:40;;;;;;;10.10;2.33;;;;;;;9.61;69.50;101286.22;5104998;28;20059;-71
2021/10/24 03:26:06;;;;;;;9.43;2.00;;;;;;;9.62;69.39;101285.34;5086486;28;20020;-71
2021/10/24 03:28:33;;;;;;;8.10;2.25;;;;;;;9.66;69.59;101287.09;5103808;28;20028;-71
2021/10/24 03:30:59;;;;;;;7.35;1.88;;;;;;;9.66;69.64;101281.06;5104520;28;20024;-71
2021/10/24 03:33:25;;;;;;;8.38;1.52;;;;;;;9.70;69.68;101292.31;5104686;28;20341;-71
2021/10/24 03:35:50;;;;;;;10.00;2.53;;;;;;;9.67;69.71;101278.50;5104529;28;20024;-71
2021/10/24 03:38:15;;;;;;;9.85;1.85;;;;;;;9.72;69.57;101291.50;5120318;28;20085;-71
2021/10/24 03:40:41;;;;;;;33.60;3.08;;;;;;;9.74;69.50;101284.59;5104442;28;20024;-71
2021/10/24 03:43:06;;;;;;;9.85;1.88;;;;;;;9.74;69.75;101286.31;5104389;28;20039;-71
2021/10/24 03:45:32;;;;;;;6.03;1.50;;;;;;;9.75;69.72;101282.88;5104792;28;20024;-71
2021/10/24 03:47:57;;;;;;;7.65;1.70;;;;;;;9.71;69.79;101275.94;5104670;28;20046;-70
2021/10/24 03:50:22;;;;;;;7.82;1.85;;;;;;;9.69;69.74;101269.84;5104674;28;20103;-71
2021/10/24 03:52:48;;;;;;;11.65;2.05;;;;;;;9.75;69.55;101275.97;5104273;28;20039;-71
2021/10/24 03:55:14;;;;;;;9.05;1.73;;;;;;;9.74;69.81;101276.84;5086358;28;20051;-71
2021/10/24 03:57:40;;;;;;;9.85;1.60;;;;;;;9.82;69.79;101276.00;5086214;28;20103;-71
2021/10/24 04:00:07;;;;;;;10.45;1.52;;;;;;;9.80;69.84;101273.41;5104596;28;20016;-71
2021/10/24 04:02:33;;;;;;;7.85;1.83;;;;;;;9.78;70.04;101275.13;5104204;28;20471;-70
2021/10/24 04:04:58;;;;;;;9.60;1.55;;;;;;;9.75;70.33;101268.19;5104473;28;20055;-70
2021/10/24 04:07:23;;;;;;;12.18;1.80;;;;;;;9.79;70.60;101271.69;5104091;28;20068;-71
2021/10/24 04:09:49;;;;;;;6.75;1.88;;;;;;;9.79;70.50;101272.53;5119902;28;20076;-69
2021/10/24 04:12:14;;;;;;;5.50;1.55;;;;;;;9.76;70.90;101282.03;5104193;28;20030;-71
2021/10/24 04:14:41;;;;;;;11.38;1.88;;;;;;;9.81;70.93;101279.47;5085803;28;20501;-72
2021/10/24 04:17:07;;;;;;;6.57;1.60;;;;;;;9.76;71.48;101274.25;5104232;28;20030;-70
2021/10/24 04:19:32;;;;;;;8.43;2.15;;;;;;;9.78;71.53;101280.28;5104237;28;20107;-70
2021/10/24 04:21:57;;;;;;;10.30;1.65;;;;;;;9.72;71.70;101269.88;5103859;28;20028;-71
2021/10/24 04:24:23;;;;;;;8.13;2.40;;;;;;;9.71;72.17;101275.94;5103860;28;20527;-71
2021/10/24 04:26:48;;;;;;;7.88;1.95;;;;;;;9.77;72.27;101286.34;5119815;28;20083;-71
2021/10/24 04:29:14;;;;;;;9.73;1.90;;;;;;;9.81;72.68;101284.66;5103874;28;20024;-71
2021/10/24 04:31:39;;;;;;;5.85;1.23;;;;;;;9.81;72.67;101267.34;5103833;28;20494;-70
2021/10/24 04:34:04;;;;;;;6.10;1.75;;;;;;;9.81;72.87;101277.72;5085428;28;20091;-70
2021/10/24 04:36:30;;;;;;;9.90;2.33;;;;;;;9.68;73.52;101253.41;5103460;28;20028;-70
2021/10/24 04:38:55;;;;;;;14.85;2.25;;;;;;;9.77;73.30;101269.06;5104141;28;20415;-70
2021/10/24 04:41:21;;;;;;;7.75;3.35;;;;;;;9.76;73.67;101258.69;5103695;28;20031;-71
2021/10/24 04:43:46;;;;;;;10.73;2.28;;;;;;;9.77;73.78;101265.59;5103660;28;20586;-70
2021/10/24 04:46:11;;;;;;;7.35;1.90;;;;;;;9.77;73.72;101252.63;5103754;28;20088;-70
2021/10/24 04:48:37;;;;;;;17.00;2.60;;;;;;;9.75;73.81;101249.16;5103662;28;20065;-72
2021/10/24 04:51:02;;;;;;;11.27;2.30;;;;;;;9.74;73.52;101244.84;5103306;28;20785;-70
2021/10/24 04:53:29;;;;;;;6.35;1.80;;;;;;;9.78;73.56;101256.97;5084368;28;20020;-70
2021/10/24 04:55:55;;;;;;;8.73;1.85;;;;;;;9.74;74.13;101258.69;5103362;28;20034;-71
2021/10/24 04:58:20;;;;;;;14.35;3.03;;;;;;;9.75;74.46;101255.22;5084994;28;20028;-71
2021/10/24 05:00:46;;;;;;;10.85;2.17;;;;;;;9.79;74.34;101261.31;5103212;28;20016;-70
2021/10/24 05:03:11;;;;;;;7.68;2.15;;;;;;;9.80;74.57;101247.47;5103407;28;20437;-70
2021/10/24 05:05:37;;;;;;;8.45;1.70;;;;;;;9.82;75.31;101253.56;5103338;28;20020;-70
2021/10/24 05:08:03;;;;;;;9.77;1.95;;;;;;;9.79;75.48;101261.31;5103261;28;20024;-70
2021/10/24 05:10:28;;;;;;;15.63;2.00;;;;;;;9.78;76.26;101249.19;5103247;28;20315;-71
2021/10/24 05:12:54;;;;;;;21.77;2.60;;;;;;;9.85;76.21;101244.91;5103267;28;20035;-72
2021/10/24 05:15:21;;;;;;;11.90;1.98;;;;;;;9.86;76.24;101241.47;5103166;28;20024;-71
2021/10/24 05:17:46;;;;;;;19.00;2.67;;;;;;;9.86;76.69;101241.47;5103219;28;20027;-71
2021/10/24 05:20:12;;;;;;;5.47;1.48;;;;;;;9.81;76.91;101233.66;5103414;28;20528;-73
2021/10/24 05:22:37;;;;;;;8.82;3.45;;;;;;;9.85;76.83;101234.53;5103186;28;20024;-71
2021/10/24 05:25:03;;;;;;;12.73;2.30;;;;;;;9.84;77.00;101233.66;5103050;28;20056;-71
2021/10/24 05:27:29;;;;;;;10.85;1.75;;;;;;;9.87;76.89;101228.50;5103443;28;20051;-70
2021/10/24 05:29:54;;;;;;;10.82;1.90;;;;;;;9.88;76.84;101243.22;5103491;28;20020;-71
2021/10/24 05:32:19;;;;;;;9.10;2.17;;;;;;;9.92;76.44;101237.19;5103291;28;20024;-71
2021/10/24 05:34:45;;;;;;;15.05;2.30;;;;;;;9.86;77.00;101225.91;5103132;28;20115;-71
2021/10/24 05:37:10;;;;;;;8.50;1.83;;;;;;;9.85;76.99;101221.56;5103025;28;20035;-71
2021/10/24 05:39:36;;;;;;;14.02;2.75;;;;;;;9.85;76.94;101224.16;5103094;28;20084;-71
2021/10/24 05:42:02;;;;;;;11.82;2.47;;;;;;;9.86;76.93;101213.81;5102914;28;20101;-72
2021/10/24 05:44:28;;;;;;;6.55;1.95;;;;;;;9.90;76.73;101218.16;5103308;28;20048;-71
2021/10/24 05:46:54;;;;;;;8.82;1.92;;;;;;;9.88;76.69;101204.31;5103144;28;20026;-70
2021/10/24 05:49:20;;;;;;;5.65;1.50;;;;;;;10.03;76.23;101200.09;5103243;28;20016;-70
2021/10/24 05:51:45;;;;;;;8.80;1.70;;;;;;;9.89;76.90;101213.81;5084789;28;20515;-70
2021/10/24 05:54:11;;;;;;;10.13;2.33;;;;;;;9.89;76.84;101212.94;5103288;28;20020;-71
2021/10/24 05:56:36;;;;;;;8.00;2.75;;;;;;;9.94;76.72;101219.06;5103121;28;20028;-70
2021/10/24 05:59:02;;;;;;;11.77;2.17;;;;;;;9.89;76.84;101198.28;5102872;28;20016;-71
2021/10/24 06:01:27;;;;;;;12.00;2.22;;;;;;;9.89;77.28;101216.44;5103381;28;20051;-70
2021/10/24 06:03:53;;;;;;;10.85;2.28;;;;;;;9.92;77.41;101223.34;5084867;28;20488;-70
2021/10/24 06:06:19;;;;;;;10.75;2.05;;;;;;;9.91;77.55;101214.72;5106140;28;20020;-70
2021/10/24 06:08:44;;;;;;;14.65;2.95;;;;;;;9.88;78.26;101209.50;5106626;28;20016;-69
2021/10/24 06:11:33;;;;;;;10.40;2.72;;;;;;;9.86;78.58;101215.53;5106482;28;20028;-70
2021/10/24 06:13:58;;;;;;;16.65;3.60;;;;;;;9.90;78.43;101218.16;5106327;28;20115;-69
2021/10/24 06:16:23;;;;;;;10.32;2.03;;;;;;;9.87;78.27;101212.94;5106519;28;20024;-70
2021/10/24 06:18:49;;;;;;;10.85;2.30;;;;;;;9.90;78.35;101207.78;5106534;28;20024;-70
2021/10/24 06:21:14;;;;;;;13.98;2.75;;;;;;;9.89;78.46;101211.25;5121551;28;20035;-72
2021/10/24 06:23:40;;;;;;;19.17;3.03;;;;;;;9.91;78.86;101219.91;5106251;28;20059;-69
2021/10/24 06:26:05;;;;;;;9.82;2.40;;;;;;;9.88;78.99;101208.63;5106557;28;20061;-69
2021/10/24 06:28:32;;;;;;;10.82;2.30;;;;;;;9.94;78.57;101210.38;5106538;28;20126;-70
2021/10/24 06:30:57;;;;;;;13.65;2.53;;;;;;;9.90;78.85;101212.97;5106146;28;20318;-71
2021/10/24 06:33:22;;;;;;;13.80;2.83;;;;;;;9.99;78.75;101222.56;5106167;28;20059;-70
2021/10/24 06:35:48;;;;;;;12.60;2.75;;;;;;;10.03;78.46;101220.84;5106136;28;20083;-70
2021/10/24 06:38:13;;;;;;;11.45;2.72;;;;;;;10.02;78.69;101214.78;5105522;28;20028;-70
2021/10/24 06:40:39;;;;;;;8.68;2.85;;;;;;;10.01;78.96;101215.66;5105982;28;20176;-71
2021/10/24 06:43:04;;;;;;;12.55;2.05;;;;;;;10.05;79.08;101219.13;5121317;28;20418;-70
2021/10/24 06:45:31;;;;;;;18.02;2.80;;;;;;;10.09;79.07;101222.63;5105993;28;20091;-70
2021/10/24 06:47:56;;;;;;;17.35;2.40;;;;;;;10.09;79.22;101207.03;5105922;28;20051;-70
2021/10/24 06:50:22;;;;;;;20.92;3.30;;;;;;;10.14;79.18;101219.19;5105871;28;20031;-70
2021/10/24 06:52:47;;;;;;;15.13;2.55;;;;;;;10.18;79.06;101207.09;5105445;28;20479;-70
2021/10/24 06:55:12;;;;;;;10.68;2.50;;;;;;;10.20;79.33;101209.72;5105874;28;20074;-71
2021/10/24 06:57:51;;;;;;;10.10;2.80;;;;;;;10.18;79.38;101199.31;5105508;28;20028;-72
2021/10/24 07:00:18;;;;;;;14.38;2.72;;;;;;;10.22;79.52;101206.28;5105675;28;20020;-72
2021/10/24 07:02:43;;;;;;;7.93;2.80;;;;;;;10.25;79.71;101210.59;5105263;28;20580;-73
2021/10/24 07:05:12;;;;;;;13.55;3.05;;;;;;;10.20;80.06;101194.13;5105556;28;20087;-72
2021/10/24 07:07:37;;;;;;;16.02;3.60;;;;;;;10.27;80.04;101203.72;5105240;28;20024;-71
2021/10/24 07:10:04;;;;;;;16.48;3.40;;;;;;;10.33;80.38;101210.66;5105534;28;20020;-71
2021/10/24 07:12:30;;;;;;;15.27;3.38;;;;;;;10.32;80.21;101199.38;5105333;28;20210;-70
2021/10/24 07:14:55;;;;;;;21.17;3.60;;;;;;;10.37;80.10;101207.19;5105567;28;20030;-71
2021/10/24 07:17:20;;;;;;;16.58;3.80;;;;;;;10.34;79.99;101202.88;5104489;28;20107;-72
2021/10/24 07:19:46;;;;;;;15.95;3.78;;;;;;;10.33;80.35;101203.75;5105247;28;20020;-74
2021/10/24 07:22:11;;;;;;;24.08;3.55;;;;;;;10.41;80.23;101209.81;5104886;28;20028;-73
2021/10/24 07:24:36;;;;;;;18.83;3.67;;;;;;;10.39;80.08;101203.78;5105088;28;20574;-72
2021/10/24 07:27:02;;;;;;;12.60;2.80;;;;;;;10.38;80.43;101194.22;5105292;28;20031;-72
2021/10/24 07:29:30;;;;;;;13.35;3.65;;;;;;;10.36;80.53;101193.38;5105060;28;20016;-73
2021/10/24 07:31:58;;;;;;;15.98;3.25;;;;;;;10.35;80.51;101193.38;5105108;28;20031;-73
2021/10/24 07:34:25;;;;;;;12.88;3.33;;;;;;;10.37;80.68;101186.44;5105101;28;20024;-73
2021/10/24 07:36:50;;;;;;;13.77;3.05;;;;;;;10.43;80.84;101199.47;5104684;28;20032;-74
2021/10/24 07:39:16;;;;;;;18.17;4.70;;;;;;;10.45;81.00;101202.06;5086482;28;20344;-73
2021/10/24 07:41:42;;;;;;;25.35;4.68;;;;;;;10.41;81.18;101188.22;5104776;28;20031;-74
2021/10/24 07:44:07;;;;;;;16.25;4.80;;;;;;;10.44;81.49;101200.31;5120579;28;20099;-73
2021/10/24 07:46:34;;;;;;;18.77;4.60;;;;;;;10.44;81.87;101205.50;5104917;28;20504;-74
2021/10/24 07:48:59;;;;;;;14.63;3.63;;;;;;;10.44;81.87;101210.69;5086341;28;20027;-74
2021/10/24 07:51:28;;;;;;;19.50;2.83;;;;;;;10.48;81.85;101204.72;5104346;28;20028;-72
2021/10/24 07:53:53;;;;;;;15.65;4.25;;;;;;;10.52;81.77;101217.72;5105028;28;20123;-73
2021/10/24 07:56:18;;;;;;;23.20;5.72;;;;;;;10.45;81.95;101209.88;5104680;28;20039;-73
2021/10/24 07:58:44;;;;;;;31.23;5.72;;;;;;;10.46;81.94;101216.78;5104608;28;20320;-74
2021/10/24 08:01:10;;;;;;;20.85;5.28;;;;;;;10.39;82.11;101206.38;5104639;28;20110;-74
2021/10/24 08:03:35;;;;;;;17.73;5.07;;;;;;;10.36;82.46;101206.34;5104694;28;20078;-72
2021/10/24 08:06:01;;;;;;;21.95;6.00;;;;;;;10.31;82.66;101212.34;5104270;28;20518;-71
2021/10/24 08:08:27;;;;;;;17.52;5.80;;;;;;;10.20;83.21;101207.09;5085918;28;20016;-72
2021/10/24 08:10:52;;;;;;;19.15;5.93;;;;;;;10.13;83.81;101199.28;5104283;28;20076;-71
2021/10/24 08:13:18;;;;;;;20.15;5.88;;;;;;;10.11;84.37;101195.81;5104067;28;20027;-72
2021/10/24 08:15:47;;;;;;;18.30;5.55;;;;;;;10.08;84.93;101200.13;5104438;28;20068;-73
2021/10/24 08:18:12;;;;;;;19.75;6.50;;;;;;;10.02;85.01;101194.03;5119626;28;20035;-73
2021/10/24 08:20:40;;;;;;;25.55;5.82;;;;;;;10.04;85.29;101192.34;5086152;28;20101;-75
2021/10/24 08:23:06;;;;;;;20.52;5.13;;;;;;;10.05;85.33;101198.38;5103779;28;20027;-74
2021/10/24 08:25:32;;;;;;;16.92;5.63;;;;;;;10.13;85.53;101191.50;5103986;28;20055;-74
2021/10/24 08:28:00;;;;;;;26.55;8.15;;;;;;;10.20;85.09;101194.13;5085570;28;20042;-74
2021/10/24 08:30:26;;;;;;;30.90;6.85;;;;;;;10.22;85.35;101192.44;5103679;28;20040;-75
2021/10/24 08:32:51;;;;;;;21.42;6.10;;;;;;;10.29;84.56;101204.56;5103972;28;20275;-74
2021/10/24 08:35:17;;;;;;;18.67;5.03;;;;;;;10.27;84.51;101194.19;5085703;28;20028;-74
2021/10/24 08:37:43;;;;;;;28.05;6.93;;;;;;;10.33;84.71;101206.34;5119232;28;20262;-74
2021/10/24 08:40:09;;;;;;;23.77;6.10;;;;;;;10.35;84.56;101204.59;5103619;28;20369;-74
2021/10/24 08:42:39;;;;;;;19.38;5.85;;;;;;;10.44;84.31;101208.09;5103619;28;20019;-75
2021/10/24 08:45:06;;;;;;;13.80;4.18;;;;;;;10.42;84.22;101195.13;5103722;28;20028;-74
2021/10/24 08:47:31;;;;;;;24.38;5.68;;;;;;;10.48;84.12;101205.56;5103758;28;20027;-74
2021/10/24 08:49:57;;;;;;;33.35;6.05;;;;;;;10.52;83.73;101211.66;5103789;28;20020;-74
2021/10/24 08:52:25;;;;;;;24.55;5.85;;;;;;;10.56;83.74;101215.97;5103498;28;20032;-75
2021/10/24 08:54:53;;;;;;;22.40;6.50;;;;;;;10.60;83.13;101209.97;5103560;28;20020;-73
2021/10/24 08:57:37;;;;;;;22.17;5.32;;;;;;;10.64;83.54;101203.03;5103866;28;20020;-74
2021/10/24 09:00:04;;;;;;;15.00;5.55;;;;;;;10.66;83.25;101202.19;5103744;28;20035;-74
2021/10/24 09:02:56;;;;;;;16.48;5.05;;;;;;;10.75;82.99;101208.28;5103477;28;20412;-75
2021/10/24 09:05:41;;;;;;;36.45;6.35;;;;;;;10.76;82.90;101215.22;5103613;28;20012;-74
2021/10/24 09:08:27;;;;;;;24.73;5.43;;;;;;;10.82;82.90;101219.56;5103379;28;20065;-73
2021/10/24 09:10:59;;;;;;;18.63;6.03;;;;;;;10.87;82.77;101217.84;5085365;28;20062;-75
2021/10/24 09:13:29;;;;;;;18.58;6.95;;;;;;;10.87;82.76;101210.06;5103558;28;20031;-74
2021/10/24 09:16:03;;;;;;;28.17;6.82;;;;;;;10.90;82.50;101220.44;5103129;28;20055;-75
2021/10/24 09:18:39;;;;;;;30.05;8.02;;;;;;;10.93;82.42;101217.84;5103493;28;20050;-74
2021/10/24 09:21:16;;;;;;;20.23;6.15;;;;;;;10.98;82.45;101220.47;5103143;28;20020;-74
2021/10/24 09:23:42;;;;;;;25.00;7.15;;;;;;;10.91;82.39;101223.06;5103169;28;20048;-72
2021/10/24 09:26:22;;;;;;;19.02;5.95;;;;;;;10.89;82.57;101222.16;5103335;28;20031;-73
2021/10/24 09:29:08;;;;;;;28.77;6.55;;;;;;;10.93;82.72;101222.22;5103294;28;20027;-73
2021/10/24 09:31:42;;;;;;;22.05;5.70;;;;;;;11.03;82.29;101223.97;5103257;28;20028;-75
2021/10/24 09:34:12;;;;;;;18.05;6.20;;;;;;;11.06;82.21;101226.56;5103191;28;20024;-68
2021/10/24 09:36:53;;;;;;;22.13;6.00;;;;;;;11.13;82.45;101230.06;5084721;28;20038;-67
2021/10/24 09:39:19;;;;;;;20.55;6.00;;;;;;;11.18;82.03;101225.75;5103495;28;20470;-68
2021/10/24 09:41:46;;;;;;;20.27;6.78;;;;;;;11.25;81.57;101221.41;5106928;28;20048;-69
2021/10/24 09:44:13;;;;;;;36.40;6.93;;;;;;;11.32;81.21;101227.50;5107083;28;20031;-68
2021/10/24 09:46:58;;;;;;;20.75;6.00;;;;;;;11.43;80.61;101232.69;5107098;28;20379;-69
2021/10/24 09:49:25;;;;;;;47.28;6.28;;;;;;;11.47;80.32;101234.44;5107170;28;20020;-73
2021/10/24 09:51:52;;;;;;;20.80;6.22;;;;;;;11.52;80.12;101243.09;5088256;28;20020;-73
2021/10/24 09:54:25;;;;;;;24.88;5.70;;;;;;;11.55;79.72;101231.84;5106537;28;20381;-74
2021/10/24 09:56:54;;;;;;;20.83;5.97;;;;;;;11.61;79.32;101232.72;5106872;28;20034;-69
2021/10/24 09:59:23;;;;;;;21.17;6.10;;;;;;;11.73;79.28;101236.19;5106703;28;20016;-66
2021/10/24 10:01:52;;;;;;;20.40;6.40;;;;;;;11.83;78.75;101232.72;5106219;28;20021;-67
2021/10/24 10:04:19;;;;;;;29.23;7.85;;;;;;;11.88;78.56;101224.91;5088417;28;20053;-69
2021/10/24 10:06:44;;;;;;;25.58;8.48;;;;;;;11.93;77.75;101236.19;5106465;28;20020;-72
2021/10/24 10:09:12;;;;;;;18.95;6.88;;;;;;;11.88;77.46;101231.00;5106501;28;20483;-70
2021/10/24 10:11:49;;;;;;;20.30;7.03;;;;;;;11.87;77.31;101238.78;5106415;28;20016;-70
2021/10/24 10:14:27;;;;;;;24.27;8.07;;;;;;;11.80;77.15;101232.72;5088333;28;20056;-75
2021/10/24 10:17:05;;;;;;;21.48;5.57;;;;;;;11.64;77.43;101230.13;5106853;28;20053;-72
2021/10/24 10:19:39;;;;;;;30.63;9.57;;;;;;;11.62;77.55;101239.66;5106611;28;20107;-71
2021/10/24 10:22:30;;;;;;;24.92;8.75;;;;;;;11.54;77.92;101236.19;5106301;28;20020;-70
2021/10/24 10:25:01;;;;;;;22.77;7.65;;;;;;;11.47;78.26;101229.25;5106198;28;20066;-71
2021/10/24 10:27:26;;;;;;;20.63;8.18;;;;;;;11.48;78.30;101225.78;5106562;28;20039;-69
2021/10/24 10:29:55;;;;;;;28.77;8.05;;;;;;;11.43;78.64;101228.38;5106505;28;20012;-69
2021/10/24 10:32:31;;;;;;;23.92;5.93;;;;;;;11.44;78.88;101237.91;5087696;28;20427;-69
2021/10/24 10:35:05;;;;;;;21.77;7.50;;;;;;;11.45;79.09;101226.66;5105964;28;20054;-69
2021/10/24 10:37:47;;;;;;;32.42;8.68;;;;;;;11.44;79.22;101224.06;5104831;28;20034;-70
2021/10/24 10:40:18;;;;;;;14.70;6.82;;;;;;;11.44;79.42;101231.84;5106029;28;20141;-70
2021/10/24 10:42:45;;;;;;;24.50;8.53;;;;;;;11.45;79.41;101226.66;5105773;28;20054;-69
2021/10/24 10:45:16;;;;;;;13.73;5.95;;;;;;;11.46;79.32;101220.56;5106319;28;20282;-69
2021/10/24 10:47:49;;;;;;;24.65;8.57;;;;;;;11.42;79.32;101226.66;5106184;28;20045;-70
2021/10/24 10:50:30;;;;;;;26.63;8.27;;;;;;;11.47;79.31;101235.31;5105724;28;20035;-69
2021/10/24 10:53:01;;;;;;;23.80;7.78;;;;;;;11.46;79.51;101227.50;5104825;28;20012;-69
2021/10/24 10:55:47;;;;;;;27.02;7.88;;;;;;;11.49;79.57;101227.50;5106016;28;20144;-70
2021/10/24 10:58:25;;;;;;;25.90;7.72;;;;;;;11.54;79.33;101230.97;5105484;28;20031;-70
2021/10/24 11:00:55;;;;;;;17.35;5.93;;;;;;;11.50;79.43;101229.25;5105745;28;20102;-70
2021/10/24 11:03:47;;;;;;;24.67;6.95;;;;;;;11.51;79.44;101231.84;5105605;28;20159;-69
2021/10/24 11:06:25;;;;;;;19.40;6.93;;;;;;;11.51;79.26;101242.25;5105185;28;20040;-69
2021/10/24 11:08:58;;;;;;;23.08;6.57;;;;;;;11.54;79.27;101230.97;5105684;28;20012;-69
2021/10/24 11:11:44;;;;;;;24.13;7.28;;;;;;;11.52;79.12;101223.19;5087175;28;20091;-69
2021/10/24 11:14:16;;;;;;;18.52;6.53;;;;;;;11.53;79.08;101222.31;5105526;28;20475;-69
2021/10/24 11:16:42;;;;;;;16.77;6.50;;;;;;;11.54;78.86;101225.78;5105710;28;20028;-69
2021/10/24 11:19:40;;;;;;;12.75;5.47;;;;;;;11.58;78.53;101230.09;5105494;28;20285;-70
2021/10/24 11:22:10;;;;;;;21.13;8.18;;;;;;;11.55;78.77;101227.50;5081273;28;20032;-68
2021/10/24 11:24:41;;;;;;;24.92;8.35;;;;;;;11.59;78.45;101229.25;5104777;28;20040;-68
2021/10/24 11:27:09;;;;;;;17.65;7.00;;;;;;;11.54;78.54;101225.78;5105158;28;20047;-68